sensor_id;sensor_type;location;lat;lon;timestamp;pressure;altitude;pressure_sealevel;temperature;humidity
42411;BME280;28056;51.112;0.984;2023-12-07T00:01:09;100781.52;;;7.33;95.41
42411;BME280;28056;51.112;0.984;2023-12-07T00:03:36;100780.24;;;7.16;96.37
42411;BME280;28056;51.112;0.984;2023-12-07T00:06:03;100771.37;;;7.18;95.37
42411;BME280;28056;51.112;0.984;2023-12-07T00:08:31;100758.26;;;7.53;93.15
42411;BME280;28056;51.112;0.984;2023-12-07T00:10:59;100755.33;;;7.86;91.83
42411;BME280;28056;51.112;0.984;2023-12-07T00:13:26;100759.41;;;7.85;90.38
42411;BME280;28056;51.112;0.984;2023-12-07T00:15:53;100764.52;;;7.58;90.93
42411;BME280;28056;51.112;0.984;2023-12-07T00:18:21;100763.66;;;7.76;90.85
42411;BME280;28056;51.112;0.984;2023-12-07T00:20:48;100757.09;;;7.60;89.70
42411;BME280;28056;51.112;0.984;2023-12-07T00:23:15;100746.90;;;7.65;90.57
42411;BME280;28056;51.112;0.984;2023-12-07T00:25:42;100739.49;;;7.42;92.16
42411;BME280;28056;51.112;0.984;2023-12-07T00:28:09;100732.30;;;7.30;91.13
42411;BME280;28056;51.112;0.984;2023-12-07T00:30:42;100734.44;;;7.27;91.89
42411;BME280;28056;51.112;0.984;2023-12-07T00:33:09;100730.47;;;7.27;92.51
42411;BME280;28056;51.112;0.984;2023-12-07T00:35:37;100719.94;;;7.17;93.59
42411;BME280;28056;51.112;0.984;2023-12-07T00:38:04;100716.81;;;7.33;93.46
42411;BME280;28056;51.112;0.984;2023-12-07T00:40:31;100722.50;;;6.59;96.25
42411;BME280;28056;51.112;0.984;2023-12-07T00:42:58;100719.05;;;6.85;97.28
42411;BME280;28056;51.112;0.984;2023-12-07T00:45:25;100714.33;;;6.55;99.38
42411;BME280;28056;51.112;0.984;2023-12-07T00:47:53;100716.47;;;6.72;99.34
42411;BME280;28056;51.112;0.984;2023-12-07T00:50:20;100715.51;;;6.26;99.05
42411;BME280;28056;51.112;0.984;2023-12-07T00:52:48;100714.82;;;7.09;98.67
42411;BME280;28056;51.112;0.984;2023-12-07T00:55:15;100716.88;;;6.79;98.71
42411;BME280;28056;51.112;0.984;2023-12-07T00:57:42;100716.16;;;7.09;98.21
42411;BME280;28056;51.112;0.984;2023-12-07T01:00:10;100714.20;;;6.54;99.81
42411;BME280;28056;51.112;0.984;2023-12-07T01:04:48;100717.51;;;6.86;98.11
42411;BME280;28056;51.112;0.984;2023-12-07T01:07:15;100717.21;;;6.43;100.00
42411;BME280;28056;51.112;0.984;2023-12-07T01:09:42;100719.41;;;6.60;100.00
42411;BME280;28056;51.112;0.984;2023-12-07T01:12:09;100719.45;;;6.65;100.00
42411;BME280;28056;51.112;0.984;2023-12-07T01:14:36;100713.88;;;6.84;100.00
42411;BME280;28056;51.112;0.984;2023-12-07T01:17:03;100715.75;;;6.69;100.00
42411;BME280;28056;51.112;0.984;2023-12-07T01:19:32;100701.06;;;7.11;100.00
42411;BME280;28056;51.112;0.984;2023-12-07T01:22:00;100699.67;;;7.04;98.72
42411;BME280;28056;51.112;0.984;2023-12-07T01:24:27;100696.84;;;6.85;96.93
42411;BME280;28056;51.112;0.984;2023-12-07T01:26:55;100692.28;;;6.83;96.06
42411;BME280;28056;51.112;0.984;2023-12-07T01:29:22;100678.87;;;6.12;100.00
42411;BME280;28056;51.112;0.984;2023-12-07T01:31:49;100673.46;;;6.59;100.00
42411;BME280;28056;51.112;0.984;2023-12-07T01:34:17;100677.74;;;6.83;100.00
42411;BME280;28056;51.112;0.984;2023-12-07T01:36:45;100680.82;;;6.82;100.00
42411;BME280;28056;51.112;0.984;2023-12-07T01:39:12;100681.32;;;6.52;100.00
42411;BME280;28056;51.112;0.984;2023-12-07T01:41:39;100683.37;;;6.52;100.00
42411;BME280;28056;51.112;0.984;2023-12-07T01:44:07;100677.86;;;5.74;100.00
42411;BME280;28056;51.112;0.984;2023-12-07T01:46:34;100679.99;;;6.71;100.00
42411;BME280;28056;51.112;0.984;2023-12-07T01:49:02;100683.86;;;6.84;100.00
42411;BME280;28056;51.112;0.984;2023-12-07T01:51:30;100674.52;;;7.00;100.00
42411;BME280;28056;51.112;0.984;2023-12-07T01:53:58;100675.70;;;7.13;100.00
42411;BME280;28056;51.112;0.984;2023-12-07T01:56:26;100675.89;;;6.64;99.90
42411;BME280;28056;51.112;0.984;2023-12-07T01:58:53;100683.65;;;6.33;100.00
42411;BME280;28056;51.112;0.984;2023-12-07T02:01:21;100690.86;;;6.43;100.00
42411;BME280;28056;51.112;0.984;2023-12-07T02:03:49;100685.85;;;6.94;100.00
42411;BME280;28056;51.112;0.984;2023-12-07T02:06:16;100686.00;;;6.52;100.00
42411;BME280;28056;51.112;0.984;2023-12-07T02:08:44;100687.46;;;6.50;100.00
42411;BME280;28056;51.112;0.984;2023-12-07T02:11:11;100696.21;;;6.59;100.00
42411;BME280;28056;51.112;0.984;2023-12-07T02:13:40;100689.86;;;7.23;99.97
42411;BME280;28056;51.112;0.984;2023-12-07T02:16:20;100682.70;;;7.13;100.00
42411;BME280;28056;51.112;0.984;2023-12-07T02:18:52;100681.10;;;7.17;100.00
42411;BME280;28056;51.112;0.984;2023-12-07T02:21:31;100676.00;;;6.95;100.00
42411;BME280;28056;51.112;0.984;2023-12-07T02:24:02;100672.24;;;7.01;100.00
42411;BME280;28056;51.112;0.984;2023-12-07T02:26:33;100663.74;;;7.45;99.07
42411;BME280;28056;51.112;0.984;2023-12-07T02:29:00;100663.56;;;7.27;99.75
42411;BME280;28056;51.112;0.984;2023-12-07T02:31:28;100666.44;;;6.47;100.00
42411;BME280;28056;51.112;0.984;2023-12-07T02:33:55;100661.10;;;6.85;100.00
42411;BME280;28056;51.112;0.984;2023-12-07T02:36:24;100662.99;;;6.69;100.00
42411;BME280;28056;51.112;0.984;2023-12-07T02:38:56;100662.54;;;7.32;100.00
42411;BME280;28056;51.112;0.984;2023-12-07T02:41:24;100658.69;;;7.30;100.00
42411;BME280;28056;51.112;0.984;2023-12-07T02:43:52;100651.38;;;7.16;100.00
42411;BME280;28056;51.112;0.984;2023-12-07T02:46:20;100641.07;;;6.85;100.00
42411;BME280;28056;51.112;0.984;2023-12-07T02:48:48;100632.08;;;7.27;100.00
42411;BME280;28056;51.112;0.984;2023-12-07T02:51:15;100625.06;;;7.04;100.00
42411;BME280;28056;51.112;0.984;2023-12-07T02:53:42;100620.80;;;7.02;100.00
42411;BME280;28056;51.112;0.984;2023-12-07T02:56:10;100617.03;;;6.92;100.00
42411;BME280;28056;51.112;0.984;2023-12-07T02:58:37;100612.88;;;7.47;100.00
42411;BME280;28056;51.112;0.984;2023-12-07T03:01:05;100613.44;;;7.13;100.00
42411;BME280;28056;51.112;0.984;2023-12-07T03:03:32;100621.04;;;7.26;100.00
42411;BME280;28056;51.112;0.984;2023-12-07T03:06:00;100617.45;;;6.62;100.00
42411;BME280;28056;51.112;0.984;2023-12-07T03:08:27;100620.78;;;6.76;100.00
42411;BME280;28056;51.112;0.984;2023-12-07T03:10:55;100622.98;;;7.22;100.00
42411;BME280;28056;51.112;0.984;2023-12-07T03:13:22;100619.50;;;6.81;100.00
42411;BME280;28056;51.112;0.984;2023-12-07T03:15:49;100620.47;;;6.95;100.00
42411;BME280;28056;51.112;0.984;2023-12-07T03:18:17;100613.23;;;6.58;100.00
42411;BME280;28056;51.112;0.984;2023-12-07T03:20:44;100603.94;;;6.59;100.00
42411;BME280;28056;51.112;0.984;2023-12-07T03:23:11;100601.63;;;6.60;100.00
42411;BME280;28056;51.112;0.984;2023-12-07T03:25:39;100591.19;;;6.20;100.00
42411;BME280;28056;51.112;0.984;2023-12-07T03:28:06;100591.82;;;6.19;100.00
42411;BME280;28056;51.112;0.984;2023-12-07T03:30:34;100589.66;;;6.71;100.00
42411;BME280;28056;51.112;0.984;2023-12-07T03:33:01;100583.04;;;6.69;100.00
42411;BME280;28056;51.112;0.984;2023-12-07T03:35:29;100578.47;;;6.57;100.00
42411;BME280;28056;51.112;0.984;2023-12-07T03:37:56;100573.74;;;6.91;100.00
42411;BME280;28056;51.112;0.984;2023-12-07T03:40:24;100583.07;;;6.73;100.00
42411;BME280;28056;51.112;0.984;2023-12-07T03:42:52;100592.63;;;6.98;100.00
42411;BME280;28056;51.112;0.984;2023-12-07T03:45:19;100592.96;;;6.67;100.00
42411;BME280;28056;51.112;0.984;2023-12-07T03:47:47;100593.53;;;6.70;100.00
42411;BME280;28056;51.112;0.984;2023-12-07T03:50:14;100592.07;;;6.61;100.00
42411;BME280;28056;51.112;0.984;2023-12-07T03:52:42;100601.83;;;6.95;100.00
42411;BME280;28056;51.112;0.984;2023-12-07T03:55:09;100602.60;;;7.12;100.00
42411;BME280;28056;51.112;0.984;2023-12-07T03:57:37;100601.92;;;6.78;100.00
42411;BME280;28056;51.112;0.984;2023-12-07T04:00:05;100598.23;;;7.01;100.00
42411;BME280;28056;51.112;0.984;2023-12-07T04:02:33;100599.18;;;6.97;100.00
42411;BME280;28056;51.112;0.984;2023-12-07T04:05:00;100590.49;;;6.69;100.00
42411;BME280;28056;51.112;0.984;2023-12-07T04:07:28;100590.67;;;6.74;100.00
42411;BME280;28056;51.112;0.984;2023-12-07T04:09:55;100588.83;;;6.92;100.00
42411;BME280;28056;51.112;0.984;2023-12-07T04:12:23;100580.52;;;6.25;100.00
42411;BME280;28056;51.112;0.984;2023-12-07T04:14:50;100572.21;;;6.20;100.00
42411;BME280;28056;51.112;0.984;2023-12-07T04:17:18;100564.17;;;6.46;100.00
42411;BME280;28056;51.112;0.984;2023-12-07T04:19:46;100564.95;;;6.81;100.00
42411;BME280;28056;51.112;0.984;2023-12-07T04:22:13;100565.45;;;6.90;100.00
42411;BME280;28056;51.112;0.984;2023-12-07T04:24:41;100564.20;;;6.50;100.00
42411;BME280;28056;51.112;0.984;2023-12-07T04:27:08;100568.23;;;6.82;100.00
42411;BME280;28056;51.112;0.984;2023-12-07T04:29:36;100577.75;;;7.00;100.00
42411;BME280;28056;51.112;0.984;2023-12-07T04:32:04;100587.93;;;6.88;100.00
42411;BME280;28056;51.112;0.984;2023-12-07T04:34:32;100592.20;;;6.99;100.00
42411;BME280;28056;51.112;0.984;2023-12-07T04:36:59;100590.62;;;6.87;100.00
42411;BME280;28056;51.112;0.984;2023-12-07T04:39:26;100587.94;;;6.91;100.00
42411;BME280;28056;51.112;0.984;2023-12-07T04:41:54;100580.27;;;6.91;100.00
42411;BME280;28056;51.112;0.984;2023-12-07T04:44:22;100569.85;;;6.29;100.00
42411;BME280;28056;51.112;0.984;2023-12-07T04:46:49;100571.32;;;6.54;100.00
42411;BME280;28056;51.112;0.984;2023-12-07T04:49:17;100566.60;;;6.87;100.00
42411;BME280;28056;51.112;0.984;2023-12-07T04:51:44;100563.27;;;6.07;100.00
42411;BME280;28056;51.112;0.984;2023-12-07T04:54:11;100559.14;;;5.74;100.00
42411;BME280;28056;51.112;0.984;2023-12-07T04:56:40;100554.88;;;5.82;100.00
42411;BME280;28056;51.112;0.984;2023-12-07T04:59:07;100541.63;;;6.07;100.00
42411;BME280;28056;51.112;0.984;2023-12-07T05:01:35;100543.28;;;5.83;100.00
42411;BME280;28056;51.112;0.984;2023-12-07T05:04:02;100544.08;;;5.60;100.00
42411;BME280;28056;51.112;0.984;2023-12-07T05:06:30;100548.30;;;5.14;100.00
42411;BME280;28056;51.112;0.984;2023-12-07T05:08:59;100555.19;;;5.42;100.00
42411;BME280;28056;51.112;0.984;2023-12-07T05:11:27;100555.16;;;5.86;100.00
42411;BME280;28056;51.112;0.984;2023-12-07T05:13:54;100551.96;;;5.70;100.00
42411;BME280;28056;51.112;0.984;2023-12-07T05:16:22;100540.22;;;4.56;100.00
42411;BME280;28056;51.112;0.984;2023-12-07T05:18:49;100539.39;;;5.44;100.00
42411;BME280;28056;51.112;0.984;2023-12-07T05:21:17;100535.17;;;5.43;100.00
42411;BME280;28056;51.112;0.984;2023-12-07T05:23:44;100527.04;;;5.82;100.00
42411;BME280;28056;51.112;0.984;2023-12-07T05:26:12;100528.96;;;5.63;100.00
42411;BME280;28056;51.112;0.984;2023-12-07T05:28:40;100526.05;;;5.86;100.00
42411;BME280;28056;51.112;0.984;2023-12-07T05:31:07;100519.18;;;5.53;100.00
42411;BME280;28056;51.112;0.984;2023-12-07T05:33:34;100515.65;;;5.48;100.00
42411;BME280;28056;51.112;0.984;2023-12-07T05:36:01;100510.10;;;5.15;100.00
42411;BME280;28056;51.112;0.984;2023-12-07T05:38:29;100503.51;;;4.97;100.00
42411;BME280;28056;51.112;0.984;2023-12-07T05:40:57;100499.70;;;4.81;100.00
42411;BME280;28056;51.112;0.984;2023-12-07T05:43:24;100495.50;;;5.55;100.00
42411;BME280;28056;51.112;0.984;2023-12-07T05:45:51;100491.09;;;5.33;100.00
42411;BME280;28056;51.112;0.984;2023-12-07T05:48:20;100488.95;;;5.06;100.00
42411;BME280;28056;51.112;0.984;2023-12-07T05:50:47;100488.17;;;5.10;100.00
42411;BME280;28056;51.112;0.984;2023-12-07T05:53:14;100495.31;;;5.26;100.00
42411;BME280;28056;51.112;0.984;2023-12-07T05:55:42;100493.19;;;5.54;100.00
42411;BME280;28056;51.112;0.984;2023-12-07T05:58:10;100490.99;;;5.22;100.00
42411;BME280;28056;51.112;0.984;2023-12-07T06:00:37;100477.60;;;4.61;100.00
42411;BME280;28056;51.112;0.984;2023-12-07T06:03:04;100476.04;;;4.82;100.00
42411;BME280;28056;51.112;0.984;2023-12-07T06:05:31;100476.21;;;5.32;100.00
42411;BME280;28056;51.112;0.984;2023-12-07T06:07:59;100474.54;;;5.52;100.00
42411;BME280;28056;51.112;0.984;2023-12-07T06:10:26;100479.07;;;5.33;100.00
42411;BME280;28056;51.112;0.984;2023-12-07T06:13:04;100481.67;;;5.43;100.00
42411;BME280;28056;51.112;0.984;2023-12-07T06:15:31;100479.04;;;5.66;100.00
42411;BME280;28056;51.112;0.984;2023-12-07T06:17:58;100491.19;;;5.74;100.00
42411;BME280;28056;51.112;0.984;2023-12-07T06:20:26;100497.92;;;5.60;100.00
42411;BME280;28056;51.112;0.984;2023-12-07T06:22:54;100490.65;;;5.69;100.00
42411;BME280;28056;51.112;0.984;2023-12-07T06:25:21;100494.88;;;5.47;100.00
42411;BME280;28056;51.112;0.984;2023-12-07T06:27:49;100486.23;;;5.75;100.00
42411;BME280;28056;51.112;0.984;2023-12-07T06:30:16;100475.53;;;5.60;100.00
42411;BME280;28056;51.112;0.984;2023-12-07T06:32:44;100482.46;;;5.33;100.00
42411;BME280;28056;51.112;0.984;2023-12-07T06:35:12;100482.28;;;5.68;100.00
42411;BME280;28056;51.112;0.984;2023-12-07T06:37:39;100477.29;;;5.88;100.00
42411;BME280;28056;51.112;0.984;2023-12-07T06:40:09;100464.15;;;5.81;100.00
42411;BME280;28056;51.112;0.984;2023-12-07T06:42:38;100462.34;;;6.15;100.00
42411;BME280;28056;51.112;0.984;2023-12-07T06:45:06;100463.83;;;5.79;100.00
42411;BME280;28056;51.112;0.984;2023-12-07T06:47:34;100458.37;;;5.29;100.00
42411;BME280;28056;51.112;0.984;2023-12-07T06:50:01;100450.92;;;5.39;100.00
42411;BME280;28056;51.112;0.984;2023-12-07T06:52:28;100449.95;;;5.72;100.00
42411;BME280;28056;51.112;0.984;2023-12-07T06:54:56;100441.60;;;5.31;100.00
42411;BME280;28056;51.112;0.984;2023-12-07T06:57:23;100425.18;;;5.08;100.00
42411;BME280;28056;51.112;0.984;2023-12-07T06:59:50;100426.23;;;5.85;100.00
42411;BME280;28056;51.112;0.984;2023-12-07T07:02:18;100430.62;;;5.15;100.00
42411;BME280;28056;51.112;0.984;2023-12-07T07:04:46;100431.72;;;5.68;100.00
42411;BME280;28056;51.112;0.984;2023-12-07T07:07:13;100431.07;;;5.63;100.00
42411;BME280;28056;51.112;0.984;2023-12-07T07:09:40;100416.59;;;5.29;100.00
42411;BME280;28056;51.112;0.984;2023-12-07T07:12:08;100415.65;;;5.12;100.00
42411;BME280;28056;51.112;0.984;2023-12-07T07:14:35;100435.93;;;5.33;100.00
42411;BME280;28056;51.112;0.984;2023-12-07T07:17:03;100446.19;;;5.42;100.00
42411;BME280;28056;51.112;0.984;2023-12-07T07:19:31;100449.05;;;5.59;100.00
42411;BME280;28056;51.112;0.984;2023-12-07T07:21:58;100442.65;;;5.54;100.00
42411;BME280;28056;51.112;0.984;2023-12-07T07:24:26;100432.35;;;5.22;100.00
42411;BME280;28056;51.112;0.984;2023-12-07T07:26:54;100446.08;;;5.60;100.00
42411;BME280;28056;51.112;0.984;2023-12-07T07:29:21;100447.80;;;5.59;100.00
42411;BME280;28056;51.112;0.984;2023-12-07T07:31:49;100450.81;;;5.15;100.00
42411;BME280;28056;51.112;0.984;2023-12-07T07:34:16;100444.66;;;5.19;100.00
42411;BME280;28056;51.112;0.984;2023-12-07T07:36:44;100445.78;;;4.46;100.00
42411;BME280;28056;51.112;0.984;2023-12-07T07:39:11;100450.88;;;4.30;100.00
42411;BME280;28056;51.112;0.984;2023-12-07T07:41:38;100448.07;;;4.13;100.00
42411;BME280;28056;51.112;0.984;2023-12-07T07:44:06;100448.54;;;4.08;100.00
42411;BME280;28056;51.112;0.984;2023-12-07T07:46:33;100446.81;;;3.62;100.00
42411;BME280;28056;51.112;0.984;2023-12-07T07:49:00;100438.53;;;3.78;100.00
42411;BME280;28056;51.112;0.984;2023-12-07T07:51:28;100434.01;;;3.80;100.00
42411;BME280;28056;51.112;0.984;2023-12-07T07:53:56;100428.75;;;3.89;100.00
42411;BME280;28056;51.112;0.984;2023-12-07T07:56:23;100421.32;;;3.93;100.00
42411;BME280;28056;51.112;0.984;2023-12-07T07:58:50;100417.12;;;4.16;100.00
42411;BME280;28056;51.112;0.984;2023-12-07T08:01:18;100409.15;;;4.33;100.00
42411;BME280;28056;51.112;0.984;2023-12-07T08:03:45;100418.61;;;4.11;100.00
42411;BME280;28056;51.112;0.984;2023-12-07T08:06:13;100414.66;;;3.41;100.00
42411;BME280;28056;51.112;0.984;2023-12-07T08:08:41;100423.39;;;4.08;100.00
42411;BME280;28056;51.112;0.984;2023-12-07T08:11:08;100415.26;;;3.77;100.00
42411;BME280;28056;51.112;0.984;2023-12-07T08:19:24;100411.50;;;4.40;100.00
42411;BME280;28056;51.112;0.984;2023-12-07T08:21:51;100406.45;;;4.01;100.00
42411;BME280;28056;51.112;0.984;2023-12-07T08:24:18;100398.66;;;4.17;100.00
42411;BME280;28056;51.112;0.984;2023-12-07T08:26:45;100395.07;;;4.33;100.00
42411;BME280;28056;51.112;0.984;2023-12-07T08:29:13;100384.78;;;4.19;100.00
42411;BME280;28056;51.112;0.984;2023-12-07T08:31:41;100381.63;;;4.23;100.00
42411;BME280;28056;51.112;0.984;2023-12-07T08:34:08;100380.01;;;4.28;100.00
42411;BME280;28056;51.112;0.984;2023-12-07T08:36:36;100366.99;;;3.78;100.00
42411;BME280;28056;51.112;0.984;2023-12-07T08:39:03;100361.20;;;3.53;100.00
42411;BME280;28056;51.112;0.984;2023-12-07T08:41:31;100358.39;;;3.98;100.00
42411;BME280;28056;51.112;0.984;2023-12-07T08:43:58;100356.80;;;3.79;100.00
42411;BME280;28056;51.112;0.984;2023-12-07T08:46:26;100358.16;;;3.64;100.00
42411;BME280;28056;51.112;0.984;2023-12-07T08:48:58;100357.53;;;4.32;100.00
42411;BME280;28056;51.112;0.984;2023-12-07T08:51:25;100358.40;;;4.21;100.00
42411;BME280;28056;51.112;0.984;2023-12-07T08:53:53;100353.24;;;3.96;100.00
42411;BME280;28056;51.112;0.984;2023-12-07T08:56:22;100352.75;;;3.81;100.00
42411;BME280;28056;51.112;0.984;2023-12-07T08:58:50;100337.78;;;3.48;100.00
42411;BME280;28056;51.112;0.984;2023-12-07T09:01:18;100330.98;;;3.52;100.00
42411;BME280;28056;51.112;0.984;2023-12-07T09:03:46;100336.93;;;3.86;100.00
42411;BME280;28056;51.112;0.984;2023-12-07T09:06:13;100336.73;;;3.94;100.00
42411;BME280;28056;51.112;0.984;2023-12-07T09:08:41;100328.26;;;3.86;100.00
42411;BME280;28056;51.112;0.984;2023-12-07T09:11:08;100317.42;;;3.56;100.00
42411;BME280;28056;51.112;0.984;2023-12-07T09:13:35;100316.72;;;3.90;100.00
42411;BME280;28056;51.112;0.984;2023-12-07T09:16:04;100318.47;;;3.94;100.00
42411;BME280;28056;51.112;0.984;2023-12-07T09:18:33;100316.20;;;3.66;100.00
42411;BME280;28056;51.112;0.984;2023-12-07T09:21:04;100309.96;;;3.91;100.00
42411;BME280;28056;51.112;0.984;2023-12-07T09:23:31;100300.47;;;3.97;100.00
42411;BME280;28056;51.112;0.984;2023-12-07T09:25:59;100295.88;;;4.13;100.00
42411;BME280;28056;51.112;0.984;2023-12-07T09:28:27;100295.93;;;4.30;100.00
42411;BME280;28056;51.112;0.984;2023-12-07T09:30:55;100285.72;;;3.98;100.00
42411;BME280;28056;51.112;0.984;2023-12-07T09:33:23;100279.02;;;3.74;100.00
42411;BME280;28056;51.112;0.984;2023-12-07T09:35:50;100271.59;;;3.84;100.00
42411;BME280;28056;51.112;0.984;2023-12-07T09:38:17;100265.66;;;4.11;100.00
42411;BME280;28056;51.112;0.984;2023-12-07T09:40:46;100259.71;;;4.19;100.00
42411;BME280;28056;51.112;0.984;2023-12-07T09:43:14;100246.45;;;4.40;100.00
42411;BME280;28056;51.112;0.984;2023-12-07T09:45:41;100246.48;;;4.05;100.00
42411;BME280;28056;51.112;0.984;2023-12-07T09:48:11;100242.57;;;4.48;100.00
42411;BME280;28056;51.112;0.984;2023-12-07T09:50:39;100242.18;;;4.54;100.00
42411;BME280;28056;51.112;0.984;2023-12-07T09:53:08;100233.37;;;4.08;100.00
42411;BME280;28056;51.112;0.984;2023-12-07T09:55:36;100223.70;;;3.78;100.00
42411;BME280;28056;51.112;0.984;2023-12-07T09:58:04;100220.93;;;4.78;100.00
42411;BME280;28056;51.112;0.984;2023-12-07T10:00:31;100218.51;;;4.26;100.00
42411;BME280;28056;51.112;0.984;2023-12-07T10:02:59;100218.35;;;3.81;100.00
42411;BME280;28056;51.112;0.984;2023-12-07T10:05:29;100212.50;;;3.91;100.00
42411;BME280;28056;51.112;0.984;2023-12-07T10:07:56;100206.62;;;3.89;100.00
42411;BME280;28056;51.112;0.984;2023-12-07T10:10:23;100203.20;;;4.48;100.00
42411;BME280;28056;51.112;0.984;2023-12-07T10:12:52;100193.92;;;3.68;100.00
42411;BME280;28056;51.112;0.984;2023-12-07T10:15:25;100195.25;;;3.84;100.00
42411;BME280;28056;51.112;0.984;2023-12-07T10:17:54;100208.31;;;3.80;100.00
42411;BME280;28056;51.112;0.984;2023-12-07T10:20:23;100208.72;;;4.65;100.00
42411;BME280;28056;51.112;0.984;2023-12-07T10:23:02;100207.20;;;3.81;100.00
42411;BME280;28056;51.112;0.984;2023-12-07T10:25:29;100209.69;;;4.21;100.00
42411;BME280;28056;51.112;0.984;2023-12-07T10:27:57;100216.63;;;3.89;100.00
42411;BME280;28056;51.112;0.984;2023-12-07T10:30:25;100216.80;;;4.70;100.00
42411;BME280;28056;51.112;0.984;2023-12-07T10:32:54;100215.71;;;4.13;100.00
42411;BME280;28056;51.112;0.984;2023-12-07T10:35:21;100217.85;;;3.97;100.00
42411;BME280;28056;51.112;0.984;2023-12-07T10:37:49;100219.90;;;4.07;100.00
42411;BME280;28056;51.112;0.984;2023-12-07T10:40:17;100217.71;;;4.21;100.00
42411;BME280;28056;51.112;0.984;2023-12-07T10:42:48;100215.02;;;4.22;100.00
42411;BME280;28056;51.112;0.984;2023-12-07T10:45:16;100209.80;;;4.06;100.00
42411;BME280;28056;51.112;0.984;2023-12-07T10:47:44;100209.27;;;3.80;100.00
42411;BME280;28056;51.112;0.984;2023-12-07T10:50:14;100202.54;;;4.13;100.00
42411;BME280;28056;51.112;0.984;2023-12-07T10:52:47;100189.76;;;4.38;100.00
42411;BME280;28056;51.112;0.984;2023-12-07T10:55:19;100169.11;;;4.04;100.00
42411;BME280;28056;51.112;0.984;2023-12-07T10:57:47;100163.21;;;4.75;100.00
42411;BME280;28056;51.112;0.984;2023-12-07T11:00:15;100163.08;;;4.67;100.00
42411;BME280;28056;51.112;0.984;2023-12-07T11:02:45;100157.65;;;4.36;100.00
42411;BME280;28056;51.112;0.984;2023-12-07T11:05:13;100144.81;;;4.50;100.00
42411;BME280;28056;51.112;0.984;2023-12-07T11:07:47;100133.96;;;4.24;100.00
42411;BME280;28056;51.112;0.984;2023-12-07T11:10:23;100115.70;;;4.35;100.00
42411;BME280;28056;51.112;0.984;2023-12-07T11:12:59;100112.20;;;4.01;100.00
42411;BME280;28056;51.112;0.984;2023-12-07T11:15:28;100105.57;;;4.30;100.00
42411;BME280;28056;51.112;0.984;2023-12-07T11:17:56;100096.10;;;4.54;100.00
42411;BME280;28056;51.112;0.984;2023-12-07T11:20:34;100104.34;;;4.17;100.00
42411;BME280;28056;51.112;0.984;2023-12-07T11:23:07;100102.08;;;4.34;100.00
42411;BME280;28056;51.112;0.984;2023-12-07T11:25:35;100103.91;;;4.39;100.00
42411;BME280;28056;51.112;0.984;2023-12-07T11:28:04;100102.24;;;4.77;100.00
42411;BME280;28056;51.112;0.984;2023-12-07T11:30:35;100102.60;;;4.71;100.00
42411;BME280;28056;51.112;0.984;2023-12-07T11:33:04;100106.57;;;4.65;100.00
42411;BME280;28056;51.112;0.984;2023-12-07T11:35:32;100094.42;;;4.37;100.00
42411;BME280;28056;51.112;0.984;2023-12-07T11:38:04;100089.03;;;4.64;100.00
42411;BME280;28056;51.112;0.984;2023-12-07T11:40:35;100087.93;;;4.38;100.00
42411;BME280;28056;51.112;0.984;2023-12-07T11:43:02;100074.75;;;4.36;100.00
42411;BME280;28056;51.112;0.984;2023-12-07T11:45:39;100074.76;;;4.69;100.00
42411;BME280;28056;51.112;0.984;2023-12-07T11:48:08;100065.51;;;4.48;100.00
42411;BME280;28056;51.112;0.984;2023-12-07T11:50:36;100064.54;;;4.52;100.00
42411;BME280;28056;51.112;0.984;2023-12-07T11:53:04;100059.63;;;4.37;100.00
42411;BME280;28056;51.112;0.984;2023-12-07T11:55:33;100049.46;;;4.60;100.00
42411;BME280;28056;51.112;0.984;2023-12-07T11:58:01;100042.54;;;4.40;100.00
42411;BME280;28056;51.112;0.984;2023-12-07T12:00:29;100040.91;;;4.69;100.00
42411;BME280;28056;51.112;0.984;2023-12-07T12:02:56;100040.64;;;4.34;100.00
42411;BME280;28056;51.112;0.984;2023-12-07T12:05:24;100023.87;;;4.59;100.00
42411;BME280;28056;51.112;0.984;2023-12-07T12:07:52;100015.30;;;4.23;100.00
42411;BME280;28056;51.112;0.984;2023-12-07T12:10:19;100018.05;;;4.20;100.00
42411;BME280;28056;51.112;0.984;2023-12-07T12:12:46;100010.43;;;3.99;100.00
42411;BME280;28056;51.112;0.984;2023-12-07T12:15:19;100007.23;;;4.29;100.00
42411;BME280;28056;51.112;0.984;2023-12-07T12:17:46;99997.15;;;4.46;100.00
42411;BME280;28056;51.112;0.984;2023-12-07T12:20:15;99997.39;;;4.31;100.00
42411;BME280;28056;51.112;0.984;2023-12-07T12:22:42;99992.06;;;4.50;100.00
42411;BME280;28056;51.112;0.984;2023-12-07T12:25:09;99986.99;;;4.64;100.00
42411;BME280;28056;51.112;0.984;2023-12-07T12:27:37;99975.68;;;4.32;100.00
42411;BME280;28056;51.112;0.984;2023-12-07T12:30:06;99973.29;;;4.70;100.00
42411;BME280;28056;51.112;0.984;2023-12-07T12:32:42;99961.82;;;4.45;100.00
42411;BME280;28056;51.112;0.984;2023-12-07T12:35:09;99957.14;;;4.19;100.00
42411;BME280;28056;51.112;0.984;2023-12-07T12:37:36;99950.03;;;4.58;100.00
42411;BME280;28056;51.112;0.984;2023-12-07T12:40:06;99941.73;;;4.59;100.00
42411;BME280;28056;51.112;0.984;2023-12-07T12:42:33;99949.77;;;4.35;100.00
42411;BME280;28056;51.112;0.984;2023-12-07T12:45:02;99947.92;;;4.33;100.00
42411;BME280;28056;51.112;0.984;2023-12-07T12:47:29;99946.19;;;4.42;100.00
42411;BME280;28056;51.112;0.984;2023-12-07T12:49:56;99947.52;;;4.08;100.00
42411;BME280;28056;51.112;0.984;2023-12-07T12:52:24;99941.75;;;4.57;100.00
42411;BME280;28056;51.112;0.984;2023-12-07T12:54:51;99935.29;;;4.58;100.00
42411;BME280;28056;51.112;0.984;2023-12-07T12:57:19;99927.47;;;4.73;100.00
42411;BME280;28056;51.112;0.984;2023-12-07T12:59:47;99924.19;;;4.41;100.00
42411;BME280;28056;51.112;0.984;2023-12-07T13:02:15;99922.28;;;4.60;100.00
42411;BME280;28056;51.112;0.984;2023-12-07T13:04:42;99913.18;;;4.40;100.00